Parsabad, Parsabad-Moghan Airport (OITP)

NameParsabad-Moghan Airport
CityParsabad
CountryIran (Islamic Republic of)
ICAOOITP
IATAPFQ
Altitude77 m
CoordinatesGoogle Map
Live Air TrafficLiveATC.net
METAROITP 190000Z 21006KT CAVOK 20/11 Q1007
2019-06-19 00:00:00 Wind: South-Southwest (210°) 3.09 m/s - Visibility: > 10000 m - Weather: CAVOK - Temperature: 20 °C - Dew point: 11 °C - Humidity: 56.3% - Pressure: 1007 hPa

Sorry, no flights used the airport in this database.